Time;durP1;ratioP1;P1;durP2;ratioP2;P2;SDS_P1;SDS_P2;PMS_P1;PMS_P2;Temp;Humidity;BMP_temperature;BMP_pressure;BME280_temperature;BME280_humidity;BME280_pressure;Samples;Min_cycle;Max_cycle;Signal;HPM_P1;HPM_P2
2022/03/12 00:04:15;;;;;;;;;;;;;;;-1.16;39.78;98792.28;10147782;28;19928;-80
2022/03/12 00:09:16;;;;;;;;;;;;;;;-1.15;39.11;98804.41;10129953;28;20021;-78
2022/03/12 00:14:18;;;;;;;;;;;;;;;-1.16;40.21;98802.81;10163689;28;19963;-78
2022/03/12 00:19:20;;;;;;;;;;;;;;;-1.11;39.78;98808.16;10157453;28;19998;-81
2022/03/12 00:24:25;;;;;;;;;;;;;;;-1.21;40.02;98802.69;10165406;28;20742;-79
2022/03/12 00:29:27;;;;;;;;;;;;;;;-1.17;39.83;98815.19;10160837;28;19931;-78
2022/03/12 00:34:27;;;;;;;;;;;;;;;-1.16;38.97;98808.09;10200935;28;19986;-79
2022/03/12 00:39:28;;;;;;;;;;;;;;;-1.07;38.95;98813.78;10149776;28;19971;-78
2022/03/12 00:44:28;;;;;;;;;;;;;;;-1.21;40.48;98821.94;10146219;28;19931;-80
2022/03/12 00:49:29;;;;;;;;;;;;;;;-1.32;40.88;98820.13;10155815;28;19935;-80
2022/03/12 00:54:29;;;;;;;;;;;;;;;-1.37;39.87;98825.31;10163920;28;19938;-79
2022/03/12 00:59:31;;;;;;;;;;;;;;;-1.43;40.01;98839.38;10161873;28;20014;-78
2022/03/12 01:04:36;;;;;;;;;;;;;;;-1.50;40.16;98836.06;10168091;28;19938;-78
2022/03/12 01:09:38;;;;;;;;;;;;;;;-1.66;39.91;98832.31;10153392;28;20362;-78
2022/03/12 01:14:39;;;;;;;;;;;;;;;-1.73;42.33;98842.16;10169645;28;19930;-78
2022/03/12 01:19:39;;;;;;;;;;;;;;;-1.73;39.87;98835.06;10156276;28;19927;-79
2022/03/12 01:24:40;;;;;;;;;;;;;;;-1.83;41.85;98834.00;10166108;28;19937;-80
2022/03/12 01:29:41;;;;;;;;;;;;;;;-1.82;40.35;98835.66;10151163;28;19939;-79
2022/03/12 01:34:42;;;;;;;;;;;;;;;-1.88;41.84;98828.66;10167933;28;20003;-78
2022/03/12 01:39:45;;;;;;;;;;;;;;;-1.92;42.01;98835.38;10166773;28;20433;-78
2022/03/12 01:44:50;;;;;;;;;;;;;;;-2.01;41.57;98830.50;10163240;28;19974;-78
2022/03/12 01:49:53;;;;;;;;;;;;;;;-2.00;41.81;98836.53;10143382;28;20476;-77
2022/03/12 01:54:55;;;;;;;;;;;;;;;-2.05;43.87;98831.94;10158439;28;20006;-77
2022/03/12 01:59:56;;;;;;;;;;;;;;;-2.08;44.32;98835.03;10173215;28;19927;-78
2022/03/12 02:04:56;;;;;;;;;;;;;;;-2.18;43.26;98829.56;10150614;28;20374;-77
2022/03/12 02:10:01;;;;;;;;;;;;;;;-2.20;42.56;98836.84;10149103;28;19947;-79
2022/03/12 02:15:15;;;;;;;;;;;;;;;-2.12;47.32;98825.19;10146199;28;19962;-79
2022/03/12 02:20:16;;;;;;;;;;;;;;;-2.22;45.65;98817.06;10162221;28;19972;-80
2022/03/12 02:25:27;;;;;;;;;;;;;;;-2.26;44.87;98813.31;10168222;28;20441;-80
2022/03/12 02:30:45;;;;;;;;;;;;;;;-2.36;45.61;98804.16;10162081;28;19934;-78
2022/03/12 02:35:47;;;;;;;;;;;;;;;-2.38;46.11;98805.38;10194911;28;19932;-81
2022/03/12 02:40:47;;;;;;;;;;;;;;;-2.35;46.44;98808.38;10189024;28;19985;-78
2022/03/12 02:45:51;;;;;;;;;;;;;;;-2.37;47.44;98810.44;10182877;28;19953;-77
2022/03/12 02:50:52;;;;;;;;;;;;;;;-2.44;45.04;98806.31;10160516;28;19931;-75
2022/03/12 02:55:54;;;;;;;;;;;;;;;-2.43;46.89;98807.91;10167210;28;19957;-76
2022/03/12 03:00:56;;;;;;;;;;;;;;;-2.44;47.63;98811.56;10170749;28;19931;-76
2022/03/12 03:05:58;;;;;;;;;;;;;;;-2.49;47.26;98814.84;10155231;28;19931;-77
2022/03/12 03:11:00;;;;;;;;;;;;;;;-2.51;45.33;98813.47;10159921;28;19936;-76
2022/03/12 03:16:05;;;;;;;;;;;;;;;-2.64;45.00;98812.66;10202101;28;19931;-79
2022/03/12 03:21:15;;;;;;;;;;;;;;;-2.69;46.85;98814.34;10177272;28;19931;-81
2022/03/12 03:26:21;;;;;;;;;;;;;;;-2.78;49.73;98803.34;10212608;28;19995;-81
2022/03/12 03:31:23;;;;;;;;;;;;;;;-2.71;49.06;98809.31;10199442;28;19971;-84
2022/03/12 03:36:23;;;;;;;;;;;;;;;-2.53;50.87;98811.06;10170520;28;19915;-81
2022/03/12 03:41:25;;;;;;;;;;;;;;;-2.67;48.01;98820.16;10193084;28;20022;-78
2022/03/12 03:46:25;;;;;;;;;;;;;;;-2.69;45.97;98833.53;10202748;28;19970;-77
2022/03/12 03:51:25;;;;;;;;;;;;;;;-2.65;46.57;98833.88;10202245;28;19926;-78
2022/03/12 03:56:27;;;;;;;;;;;;;;;-2.59;47.49;98835.59;10203928;28;19919;-77
2022/03/12 04:01:27;;;;;;;;;;;;;;;-2.61;48.16;98835.84;10200000;28;20016;-77
2022/03/12 04:06:29;;;;;;;;;;;;;;;-2.53;46.74;98836.56;10173090;28;19978;-79
2022/03/12 04:11:30;;;;;;;;;;;;;;;-2.53;47.12;98831.31;10195108;28;19931;-77
2022/03/12 04:16:31;;;;;;;;;;;;;;;-2.46;47.00;98842.53;10165111;28;19952;-78
2022/03/12 04:21:34;;;;;;;;;;;;;;;-2.51;46.50;98850.25;10169482;28;19927;-79
2022/03/12 04:26:37;;;;;;;;;;;;;;;-2.51;47.54;98863.41;10160130;28;19937;-78
2022/03/12 04:31:37;;;;;;;;;;;;;;;-2.42;47.16;98883.09;10157563;28;19938;-79
2022/03/12 04:36:41;;;;;;;;;;;;;;;-2.43;47.14;98870.97;10157008;28;19931;-79
2022/03/12 04:41:50;;;;;;;;;;;;;;;-2.49;46.17;98869.22;10142014;28;19939;-81
2022/03/12 04:46:51;;;;;;;;;;;;;;;-2.44;45.66;98877.25;10156922;28;19938;-79
2022/03/12 04:51:52;;;;;;;;;;;;;;;-2.47;45.05;98880.31;10157797;28;19978;-78
2022/03/12 04:56:53;;;;;;;;;;;;;;;-2.47;47.47;98885.56;10230494;28;19986;-76
2022/03/12 05:01:57;;;;;;;;;;;;;;;-2.46;49.25;98893.25;10166913;28;19938;-77
2022/03/12 05:07:05;;;;;;;;;;;;;;;-2.48;46.22;98897.91;10135432;28;20465;-78
2022/03/12 05:12:07;;;;;;;;;;;;;;;-2.51;46.54;98908.06;10151588;28;19931;-77
2022/03/12 05:17:09;;;;;;;;;;;;;;;-2.52;47.13;98917.00;10173409;28;19973;-78
2022/03/12 05:22:09;;;;;;;;;;;;;;;-2.55;47.14;98920.06;10135545;28;20626;-78
2022/03/12 05:27:14;;;;;;;;;;;;;;;-2.57;48.07;98923.69;10185551;28;20386;-79
2022/03/12 05:32:15;;;;;;;;;;;;;;;-2.51;49.94;98926.47;10162557;28;19950;-79
2022/03/12 05:37:17;;;;;;;;;;;;;;;-2.45;50.24;98936.09;10146538;28;19935;-78
2022/03/12 05:42:20;;;;;;;;;;;;;;;-2.36;52.14;98938.19;10163504;28;20340;-79
2022/03/12 05:47:23;;;;;;;;;;;;;;;-2.39;47.07;98945.72;10163063;28;20026;-77
2022/03/12 05:52:26;;;;;;;;;;;;;;;-2.21;49.75;98950.94;10154622;28;20385;-77
2022/03/12 05:57:28;;;;;;;;;;;;;;;-2.14;45.96;98945.59;10146761;28;19935;-79
2022/03/12 06:02:29;;;;;;;;;;;;;;;-1.95;46.34;98956.84;10188457;28;19934;-79
2022/03/12 06:07:31;;;;;;;;;;;;;;;-1.65;47.56;98954.94;10210014;28;19938;-81
2022/03/12 06:12:32;;;;;;;;;;;;;;;-1.46;45.85;98961.75;10151059;28;20016;-79
2022/03/12 06:17:35;;;;;;;;;;;;;;;-1.36;46.94;98961.19;10173509;28;19943;-80
2022/03/12 06:22:37;;;;;;;;;;;;;;;-1.31;45.86;98966.56;10136147;28;19932;-79
2022/03/12 06:27:39;;;;;;;;;;;;;;;-1.15;45.21;98963.25;10141507;28;20002;-79
2022/03/12 06:32:44;;;;;;;;;;;;;;;-1.03;43.82;98971.13;10158119;28;19927;-79
2022/03/12 06:37:44;;;;;;;;;;;;;;;-0.78;45.02;98977.97;10175095;28;19935;-80
2022/03/12 06:42:51;;;;;;;;;;;;;;;-0.50;41.67;98980.66;10163621;28;20403;-76
2022/03/12 06:47:52;;;;;;;;;;;;;;;0.03;42.42;98976.91;10160282;28;19938;-78
2022/03/12 06:52:53;;;;;;;;;;;;;;;0.30;42.57;98977.13;10167289;28;20397;-74
2022/03/12 06:57:54;;;;;;;;;;;;;;;0.34;40.54;98983.50;10152596;28;20446;-77
2022/03/12 07:02:56;;;;;;;;;;;;;;;0.23;40.30;98989.66;10151636;28;19962;-75
2022/03/12 07:07:57;;;;;;;;;;;;;;;0.12;41.07;98986.06;10166729;28;19931;-78
2022/03/12 07:12:58;;;;;;;;;;;;;;;0.33;42.24;98981.91;10175190;28;19935;-76
2022/03/12 07:17:59;;;;;;;;;;;;;;;0.47;40.94;98979.78;10159358;28;19934;-78
2022/03/12 07:23:00;;;;;;;;;;;;;;;0.40;41.05;98984.41;10167169;28;19938;-76
2022/03/12 07:28:02;;;;;;;;;;;;;;;0.74;41.54;98979.94;10163429;28;19989;-79
2022/03/12 07:33:03;;;;;;;;;;;;;;;0.80;41.41;98984.22;10161101;28;19981;-75
2022/03/12 07:38:07;;;;;;;;;;;;;;;1.15;40.16;98978.66;10172008;28;20452;-78
2022/03/12 07:43:07;;;;;;;;;;;;;;;1.25;38.61;98981.44;10138649;28;19938;-76
2022/03/12 07:48:09;;;;;;;;;;;;;;;1.12;38.47;98985.25;10163607;28;19935;-79
2022/03/12 07:53:10;;;;;;;;;;;;;;;1.41;40.02;98988.53;10165888;28;19931;-75
2022/03/12 07:58:11;;;;;;;;;;;;;;;1.73;37.54;98997.63;10145771;28;19942;-77
2022/03/12 08:03:11;;;;;;;;;;;;;;;2.02;36.68;99000.88;10152656;28;19931;-77
2022/03/12 08:08:12;;;;;;;;;;;;;;;2.04;35.42;99004.06;10167070;28;20366;-76
2022/03/12 08:13:15;;;;;;;;;;;;;;;2.14;34.43;98991.72;10177146;28;20035;-77
2022/03/12 08:18:46;;;;;;;;;;;;;;;2.25;37.11;98995.25;10184044;28;19982;-78
2022/03/12 08:23:47;;;;;;;;;;;;;;;2.40;35.40;98999.91;10195592;28;19930;-78
2022/03/12 08:28:48;;;;;;;;;;;;;;;2.38;33.54;98997.50;10208152;28;19924;-78
2022/03/12 08:33:50;;;;;;;;;;;;;;;2.67;36.02;98999.88;10204917;28;19931;-78
2022/03/12 08:38:52;;;;;;;;;;;;;;;2.91;32.87;98993.13;10193488;28;19961;-77
2022/03/12 08:43:53;;;;;;;;;;;;;;;3.08;32.43;98990.31;10194222;28;19923;-79
2022/03/12 08:48:54;;;;;;;;;;;;;;;3.04;31.34;98997.22;10188296;28;19932;-78
2022/03/12 08:53:56;;;;;;;;;;;;;;;3.32;31.75;98990.75;10171562;28;19991;-79
2022/03/12 08:58:57;;;;;;;;;;;;;;;3.52;31.80;98982.06;10167809;28;20295;-79
2022/03/12 09:03:59;;;;;;;;;;;;;;;3.77;33.16;98978.72;10176669;28;20378;-78
2022/03/12 09:09:00;;;;;;;;;;;;;;;3.62;31.18;98974.94;10174191;28;19931;-79
2022/03/12 09:14:00;;;;;;;;;;;;;;;3.60;32.41;98966.44;10186306;28;20031;-75
2022/03/12 09:19:00;;;;;;;;;;;;;;;3.87;30.78;98960.16;10166717;28;19931;-78
2022/03/12 09:24:04;;;;;;;;;;;;;;;3.97;32.22;98949.56;10144549;28;19998;-77
2022/03/12 09:29:04;;;;;;;;;;;;;;;4.11;29.91;98955.94;10165603;28;19961;-76
2022/03/12 09:34:06;;;;;;;;;;;;;;;4.13;33.52;98956.50;10161984;28;19986;-81
2022/03/12 09:39:09;;;;;;;;;;;;;;;4.33;30.22;98953.06;10171444;28;19978;-78
2022/03/12 09:44:10;;;;;;;;;;;;;;;4.45;29.87;98955.44;10180516;28;19935;-79
2022/03/12 09:49:14;;;;;;;;;;;;;;;4.83;31.43;98948.75;10183373;28;19932;-78
2022/03/12 09:54:18;;;;;;;;;;;;;;;5.13;31.42;98951.38;10167062;28;19931;-77
2022/03/12 09:59:18;;;;;;;;;;;;;;;5.14;30.96;98949.50;10161833;28;19935;-77
2022/03/12 10:04:18;;;;;;;;;;;;;;;5.49;31.00;98937.94;10162330;28;19935;-75
2022/03/12 10:09:19;;;;;;;;;;;;;;;5.68;29.63;98930.91;10168500;28;19954;-77
2022/03/12 10:14:20;;;;;;;;;;;;;;;5.84;29.80;98926.28;10168303;28;19931;-81
2022/03/12 10:19:20;;;;;;;;;;;;;;;5.83;29.81;98926.56;10206219;28;19978;-83
2022/03/12 10:24:21;;;;;;;;;;;;;;;6.38;31.44;98922.72;10187516;28;19987;-81
2022/03/12 10:29:22;;;;;;;;;;;;;;;6.06;28.74;98911.81;10176862;28;19915;-82
2022/03/12 10:34:24;;;;;;;;;;;;;;;6.67;27.87;98917.41;10190415;28;20240;-77
2022/03/12 10:39:35;;;;;;;;;;;;;;;6.62;27.04;98896.13;10145732;28;19928;-77
2022/03/12 10:44:39;;;;;;;;;;;;;;;6.92;28.70;98915.56;10147907;28;20296;-78
2022/03/12 10:49:43;;;;;;;;;;;;;;;7.53;29.41;98898.84;10146771;28;20029;-79
2022/03/12 10:54:44;;;;;;;;;;;;;;;8.17;29.20;98900.84;10141658;28;19934;-81
2022/03/12 10:59:45;;;;;;;;;;;;;;;8.29;26.59;98887.03;10160842;28;20408;-80
2022/03/12 11:04:45;;;;;;;;;;;;;;;8.48;27.00;98885.13;10158639;28;19935;-77
2022/03/12 11:09:47;;;;;;;;;;;;;;;9.09;27.50;98884.00;10178362;28;19985;-78
2022/03/12 11:15:03;;;;;;;;;;;;;;;9.02;27.05;98880.94;10162634;28;20211;-77
2022/03/12 11:20:04;;;;;;;;;;;;;;;9.38;26.12;98886.38;10144965;28;20816;-77
2022/03/12 11:25:05;;;;;;;;;;;;;;;8.98;25.90;98871.91;10147156;28;19927;-78
2022/03/12 11:30:08;;;;;;;;;;;;;;;9.49;26.79;98876.22;10153633;28;19928;-78
2022/03/12 11:35:17;;;;;;;;;;;;;;;9.98;25.58;98872.72;10152170;28;19937;-79
2022/03/12 11:40:19;;;;;;;;;;;;;;;9.50;25.83;98860.94;10152131;28;19942;-78
2022/03/12 11:45:20;;;;;;;;;;;;;;;10.57;25.36;98859.22;10148057;28;20394;-78
2022/03/12 11:50:23;;;;;;;;;;;;;;;9.96;27.09;98855.34;10168615;28;19975;-77
2022/03/12 11:55:26;;;;;;;;;;;;;;;10.63;26.97;98838.44;10174056;28;19931;-78
2022/03/12 12:00:34;;;;;;;;;;;;;;;10.22;24.83;98834.88;10139247;28;19958;-78
2022/03/12 12:05:36;;;;;;;;;;;;;;;10.30;25.42;98824.50;10176490;28;19915;-81
2022/03/12 12:10:41;;;;;;;;;;;;;;;10.30;25.04;98827.19;10185994;28;20035;-80
2022/03/12 12:15:43;;;;;;;;;;;;;;;10.53;26.20;98820.69;10189492;28;19971;-79
2022/03/12 12:20:43;;;;;;;;;;;;;;;11.46;25.91;98825.84;10157641;28;20493;-78
2022/03/12 12:25:44;;;;;;;;;;;;;;;11.05;24.94;98815.50;10145833;28;20031;-78
2022/03/12 12:30:49;;;;;;;;;;;;;;;11.18;25.33;98800.38;10151462;28;19938;-78
2022/03/12 12:35:50;;;;;;;;;;;;;;;11.76;24.59;98791.84;10151366;28;19928;-80
2022/03/12 12:40:53;;;;;;;;;;;;;;;12.19;24.80;98780.25;10154490;28;19938;-79
2022/03/12 12:45:56;;;;;;;;;;;;;;;12.07;24.27;98769.34;10161279;28;20484;-80
2022/03/12 12:51:08;;;;;;;;;;;;;;;11.84;23.18;98761.50;10148529;28;20697;-78
2022/03/12 12:56:17;;;;;;;;;;;;;;;12.43;26.33;98748.19;10146437;28;19936;-78
2022/03/12 13:01:21;;;;;;;;;;;;;;;12.39;23.09;98741.09;10166105;28;19935;-78
2022/03/12 13:06:57;;;;;;;;;;;;;;;13.18;25.23;98743.03;10168183;28;20254;-78
2022/03/12 13:11:59;;;;;;;;;;;;;;;14.04;21.81;98732.59;10088893;28;19927;-81
2022/03/12 13:17:01;;;;;;;;;;;;;;;15.31;21.84;98726.94;10121486;28;20035;-78
2022/03/12 13:22:06;;;;;;;;;;;;;;;14.65;22.25;98719.19;10149404;28;19928;-78
2022/03/12 13:27:14;;;;;;;;;;;;;;;14.74;20.93;98714.44;10160118;28;20671;-79
2022/03/12 13:32:17;;;;;;;;;;;;;;;14.41;21.79;98712.63;10173576;28;19981;-78
2022/03/12 13:37:19;;;;;;;;;;;;;;;14.51;20.99;98708.72;10155374;28;19931;-79
2022/03/12 13:42:22;;;;;;;;;;;;;;;14.37;23.01;98700.94;10155682;28;19935;-78
2022/03/12 13:47:23;;;;;;;;;;;;;;;14.44;21.45;98687.63;10165614;28;19931;-77
2022/03/12 13:52:24;;;;;;;;;;;;;;;14.29;22.41;98682.91;10153515;28;20326;-79
2022/03/12 13:57:27;;;;;;;;;;;;;;;13.88;20.82;98673.88;10173433;28;20097;-80
2022/03/12 14:02:29;;;;;;;;;;;;;;;13.52;26.40;98671.06;10157135;28;19928;-78
2022/03/12 14:07:30;;;;;;;;;;;;;;;13.03;22.59;98668.16;10167809;28;20411;-80
2022/03/12 14:12:30;;;;;;;;;;;;;;;12.75;22.59;98662.50;10158190;28;19935;-79
2022/03/12 14:17:32;;;;;;;;;;;;;;;12.53;23.95;98652.81;10161359;28;19938;-78
2022/03/12 14:22:34;;;;;;;;;;;;;;;12.37;25.29;98652.59;10155317;28;19931;-77
2022/03/12 14:27:41;;;;;;;;;;;;;;;12.50;22.95;98656.16;10157183;28;19931;-78
2022/03/12 14:32:42;;;;;;;;;;;;;;;12.51;23.87;98655.81;10155525;28;19935;-79
2022/03/12 14:37:43;;;;;;;;;;;;;;;12.56;23.65;98649.47;10177517;28;20353;-79
2022/03/12 14:42:45;;;;;;;;;;;;;;;12.17;23.19;98637.19;10155081;28;20540;-78
2022/03/12 14:47:48;;;;;;;;;;;;;;;11.42;25.48;98638.66;10149465;28;20027;-80
2022/03/12 14:52:50;;;;;;;;;;;;;;;11.29;24.42;98635.84;10163969;28;19962;-83
2022/03/12 14:57:54;;;;;;;;;;;;;;;11.11;25.03;98635.06;10158634;28;19939;-79
2022/03/12 15:03:06;;;;;;;;;;;;;;;10.97;24.88;98647.06;10157742;28;19935;-80
2022/03/12 15:08:08;;;;;;;;;;;;;;;10.77;24.87;98633.16;10160938;28;19927;-78
2022/03/12 15:13:12;;;;;;;;;;;;;;;10.76;25.37;98634.25;10153502;28;19931;-78
2022/03/12 15:18:14;;;;;;;;;;;;;;;10.84;24.95;98627.31;10151765;28;20010;-81
2022/03/12 15:23:22;;;;;;;;;;;;;;;10.49;24.82;98629.97;10170899;28;19934;-79
2022/03/12 15:28:24;;;;;;;;;;;;;;;10.70;26.37;98642.81;10158499;28;19981;-77
2022/03/12 15:33:28;;;;;;;;;;;;;;;10.51;27.03;98633.16;10148541;28;20083;-80
2022/03/12 15:38:29;;;;;;;;;;;;;;;10.32;27.51;98629.94;10163276;28;19927;-77
2022/03/12 15:43:29;;;;;;;;;;;;;;;10.37;25.90;98635.16;10150974;28;19967;-77
2022/03/12 15:48:30;;;;;;;;;;;;;;;10.37;26.98;98635.16;10171318;28;19927;-81
2022/03/12 15:53:34;;;;;;;;;;;;;;;10.15;27.38;98633.34;10152000;28;19935;-81
2022/03/12 15:58:38;;;;;;;;;;;;;;;10.19;25.75;98626.25;10138822;28;19938;-79
2022/03/12 16:03:40;;;;;;;;;;;;;;;10.05;26.58;98620.19;10144483;28;19931;-77
2022/03/12 16:08:41;;;;;;;;;;;;;;;9.91;26.56;98617.63;10150617;28;20417;-79
2022/03/12 16:13:41;;;;;;;;;;;;;;;9.90;26.94;98621.41;10152689;28;19958;-77
2022/03/12 16:18:45;;;;;;;;;;;;;;;9.82;26.35;98618.72;10166516;28;19930;-76
2022/03/12 16:23:47;;;;;;;;;;;;;;;9.67;27.14;98623.34;10152774;28;19927;-78
2022/03/12 16:28:47;;;;;;;;;;;;;;;9.40;28.00;98618.16;10153115;28;19936;-76
2022/03/12 16:33:49;;;;;;;;;;;;;;;9.38;28.03;98617.69;10156583;28;20701;-77
2022/03/12 16:38:50;;;;;;;;;;;;;;;9.26;28.47;98622.81;10172892;28;19939;-79
2022/03/12 16:43:51;;;;;;;;;;;;;;;9.10;28.04;98614.34;10179967;28;20037;-78
2022/03/12 16:48:52;;;;;;;;;;;;;;;8.90;28.30;98612.16;10147163;28;19931;-80
2022/03/12 16:53:52;;;;;;;;;;;;;;;8.63;30.51;98613.84;10192611;28;19927;-81
2022/03/12 16:58:57;;;;;;;;;;;;;;;8.49;29.78;98615.75;10195941;28;19926;-79
2022/03/12 17:04:09;;;;;;;;;;;;;;;8.30;30.04;98625.75;10200626;28;19918;-83
2022/03/12 17:09:11;;;;;;;;;;;;;;;7.97;31.26;98615.97;10190557;28;20002;-79
2022/03/12 17:14:18;;;;;;;;;;;;;;;7.77;32.57;98613.66;10189109;28;19928;-78
2022/03/12 17:19:20;;;;;;;;;;;;;;;7.46;33.80;98618.00;10171502;28;19943;-79
2022/03/12 17:24:22;;;;;;;;;;;;;;;7.25;33.46;98609.53;10174161;28;19935;-79
2022/03/12 17:29:24;;;;;;;;;;;;;;;7.08;33.75;98613.53;10177742;28;19954;-82
2022/03/12 17:34:27;;;;;;;;;;;;;;;6.81;33.89;98616.09;10195835;28;19982;-80
2022/03/12 17:39:31;;;;;;;;;;;;;;;6.53;34.53;98621.28;10177082;28;19923;-79
2022/03/12 17:44:32;;;;;;;;;;;;;;;6.30;34.99;98629.31;10166388;28;19923;-80
2022/03/12 17:49:33;;;;;;;;;;;;;;;6.15;35.40;98627.66;10198471;28;19975;-82
2022/03/12 17:54:33;;;;;;;;;;;;;;;5.92;36.65;98630.03;10206042;28;19915;-78
2022/03/12 17:59:36;;;;;;;;;;;;;;;5.82;35.11;98629.31;10186442;28;19923;-81
2022/03/12 18:04:39;;;;;;;;;;;;;;;5.62;35.96;98628.44;10177019;28;19974;-78
2022/03/12 18:09:40;;;;;;;;;;;;;;;5.50;35.08;98635.25;10169033;28;19931;-79
2022/03/12 18:14:45;;;;;;;;;;;;;;;5.40;35.76;98634.25;10192515;28;19931;-79
2022/03/12 18:19:47;;;;;;;;;;;;;;;5.22;36.35;98626.97;10171582;28;19999;-80
2022/03/12 18:24:49;;;;;;;;;;;;;;;5.03;38.36;98626.03;10168439;28;19938;-83
2022/03/12 18:29:50;;;;;;;;;;;;;;;4.77;40.33;98622.78;10162836;28;19927;-81
2022/03/12 18:34:53;;;;;;;;;;;;;;;4.63;39.51;98624.44;10174954;28;19931;-79
2022/03/12 18:39:55;;;;;;;;;;;;;;;4.46;39.68;98630.91;10223539;28;19950;-79
2022/03/12 18:44:57;;;;;;;;;;;;;;;4.39;39.10;98634.94;10165981;28;19931;-82
2022/03/12 18:49:57;;;;;;;;;;;;;;;4.39;38.76;98626.97;10181822;28;19927;-82
2022/03/12 18:55:00;;;;;;;;;;;;;;;4.37;38.79;98629.91;10186587;28;19942;-81
2022/03/12 19:00:03;;;;;;;;;;;;;;;4.24;40.00;98633.94;10161911;28;20023;-80
2022/03/12 19:05:11;;;;;;;;;;;;;;;4.01;41.83;98634.56;10207599;28;19930;-83
2022/03/12 19:10:55;;;;;;;;;;;;;;;3.82;42.51;98631.69;10184812;28;19978;-84
2022/03/12 19:15:55;;;;;;;;;;;;;;;3.69;42.85;98627.75;10200672;28;19927;-80
2022/03/12 19:20:56;;;;;;;;;;;;;;;3.58;43.27;98623.53;10257139;28;19926;-83
2022/03/12 19:25:59;;;;;;;;;;;;;;;3.54;42.56;98619.03;10204928;28;20006;-80
2022/03/12 19:31:02;;;;;;;;;;;;;;;3.57;40.97;98616.66;10204321;28;19910;-85
2022/03/12 19:36:03;;;;;;;;;;;;;;;3.50;41.18;98616.13;10209763;28;19946;-76
2022/03/12 19:41:03;;;;;;;;;;;;;;;3.41;40.42;98618.53;10254131;28;19961;-78
2022/03/12 19:46:05;;;;;;;;;;;;;;;3.33;40.80;98620.91;10222396;28;19934;-79
2022/03/12 19:51:08;;;;;;;;;;;;;;;3.31;40.78;98620.41;10238818;28;19934;-80
2022/03/12 20:02:40;;;;;;;;;;;;;;;3.06;39.92;98629.94;10218848;28;19934;-81
2022/03/12 20:07:56;;;;;;;;;;;;;;;2.90;40.89;98615.09;10340454;23;19923;-84
2022/03/12 20:13:03;;;;;;;;;;;;;;;2.83;40.37;98609.25;10214201;28;19931;-86
2022/03/12 20:23:14;;;;;;;;;;;;;;;2.72;40.29;98605.78;10163775;28;19922;-79
2022/03/12 20:28:39;;;;;;;;;;;;;;;2.65;40.35;98607.09;10179669;28;19935;-82
2022/03/12 20:33:41;;;;;;;;;;;;;;;2.65;42.41;98604.44;10310093;28;19925;-84
2022/03/12 20:39:01;;;;;;;;;;;;;;;2.55;41.84;98599.94;10227099;28;19950;-81
2022/03/12 20:44:26;;;;;;;;;;;;;;;2.45;41.05;98602.56;10182762;28;19932;-82
2022/03/12 20:49:28;;;;;;;;;;;;;;;2.46;41.05;98599.66;10139303;28;19942;-81
2022/03/12 20:54:30;;;;;;;;;;;;;;;2.48;42.13;98602.06;10268395;28;19929;-80
2022/03/12 20:59:40;;;;;;;;;;;;;;;2.43;40.19;98599.38;10236558;28;19931;-80
2022/03/12 21:05:11;;;;;;;;;;;;;;;2.26;40.03;98603.03;10270533;28;20682;-80
2022/03/12 21:10:35;;;;;;;;;;;;;;;2.37;39.84;98590.63;10220223;28;19965;-81
2022/03/12 21:16:12;;;;;;;;;;;;;;;2.36;39.18;98596.19;10214202;28;19930;-83
2022/03/12 21:21:13;;;;;;;;;;;;;;;2.19;41.77;98591.91;10207392;28;19930;-82
2022/03/12 21:26:24;;;;;;;;;;;;;;;2.06;40.67;98586.31;10244875;28;19935;-82
2022/03/12 21:31:27;;;;;;;;;;;;;;;2.00;39.64;98588.91;10230435;28;19931;-83
2022/03/12 21:36:29;;;;;;;;;;;;;;;1.94;41.34;98589.19;10194042;28;20027;-81
2022/03/12 21:41:31;;;;;;;;;;;;;;;1.90;40.17;98580.16;10274045;28;19954;-83
2022/03/12 21:46:36;;;;;;;;;;;;;;;1.94;40.31;98589.19;10170844;28;19912;-84
2022/03/12 21:52:14;;;;;;;;;;;;;;;1.89;42.01;98581.22;10229722;28;19931;-82
2022/03/12 21:57:20;;;;;;;;;;;;;;;1.62;42.51;98592.72;10330794;28;19935;-84
2022/03/12 22:02:21;;;;;;;;;;;;;;;1.38;46.46;98584.41;10228723;28;19938;-83
2022/03/12 22:07:27;;;;;;;;;;;;;;;1.04;48.90;98583.91;10272017;23;19978;-81
2022/03/12 22:12:32;;;;;;;;;;;;;;;0.75;49.77;98577.34;10320653;28;19927;-82
2022/03/12 22:17:57;;;;;;;;;;;;;;;0.52;50.32;98581.88;10297745;28;19925;-79
2022/03/12 22:22:59;;;;;;;;;;;;;;;0.38;52.28;98583.34;10266759;28;19927;-81
2022/03/12 22:28:01;;;;;;;;;;;;;;;0.24;54.79;98582.91;10331094;28;19933;-80
2022/03/12 22:33:03;;;;;;;;;;;;;;;-0.01;58.67;98580.78;10301096;28;19938;-80
2022/03/12 22:38:05;;;;;;;;;;;;;;;-0.04;63.27;98575.22;10298694;28;19936;-80
2022/03/12 22:43:07;;;;;;;;;;;;;;;-0.32;69.85;98569.09;10285898;28;19938;-81
2022/03/12 22:48:09;;;;;;;;;;;;;;;-0.51;71.10;98562.50;10241862;28;20066;-81
2022/03/12 22:53:09;;;;;;;;;;;;;;;-0.62;72.97;98566.06;10265284;28;20003;-83
2022/03/12 22:58:10;;;;;;;;;;;;;;;-0.73;78.53;98565.13;10212619;28;19914;-81
2022/03/12 23:08:55;;;;;;;;;;;;;;;-0.59;65.77;98576.91;10270301;28;19913;-83
2022/03/12 23:14:03;;;;;;;;;;;;;;;-0.63;71.90;98583.72;10217991;28;19926;-83
2022/03/12 23:19:05;;;;;;;;;;;;;;;-0.81;75.91;98580.53;10216365;28;19930;-84
2022/03/12 23:24:09;;;;;;;;;;;;;;;-0.97;77.43;98572.41;10188158;28;19957;-82
2022/03/12 23:29:26;;;;;;;;;;;;;;;-1.09;83.48;98576.97;10313191;27;3636990;-83
2022/03/12 23:34:36;;;;;;;;;;;;;;;-1.23;84.66;98578.31;10412075;28;19948;-83
2022/03/12 23:39:40;;;;;;;;;;;;;;;-1.44;91.03;98567.44;10404112;28;19948;-85
2022/03/12 23:44:46;;;;;;;;;;;;;;;-1.54;90.22;98561.22;10394971;28;19929;-80
2022/03/12 23:49:46;;;;;;;;;;;;;;;-1.55;88.95;98570.94;10404759;28;19956;-81
2022/03/12 23:54:48;;;;;;;;;;;;;;;-1.60;86.93;98560.31;10384086;28;19964;-81
2022/03/12 23:59:56;;;;;;;;;;;;;;;-1.61;89.78;98557.94;10420253;28;19929;-81
